Time;durP1;ratioP1;P1;durP2;ratioP2;P2;SDS_P1;SDS_P2;PMS_P1;PMS_P2;Temp;Humidity;BMP_temperature;BMP_pressure;BME280_temperature;BME280_humidity;BME280_pressure;Samples;Min_cycle;Max_cycle;Signal;HPM_P1;HPM_P2
2022/04/30 00:00:09;;;;;;;16.40;8.65;;;5.60;99.90;;;;;;4786086;30;20059;-54
2022/04/30 00:02:36;;;;;;;14.02;8.02;;;;;;;;;;4787214;30;20551;-53
2022/04/30 00:05:02;;;;;;;13.07;8.43;;;4.90;99.90;;;;;;4787283;30;20055;-54
2022/04/30 00:07:28;;;;;;;14.23;8.18;;;;;;;;;;4785696;30;20082;-54
2022/04/30 00:09:53;;;;;;;16.33;8.63;;;5.40;99.90;;;;;;4787089;30;20112;-55
2022/04/30 00:12:20;;;;;;;13.23;8.38;;;5.40;99.90;;;;;;4787408;30;20059;-54
2022/04/30 00:14:46;;;;;;;18.80;9.05;;;;;;;;;;4771208;30;20059;-54
2022/04/30 00:17:13;;;;;;;17.65;9.75;;;5.50;99.90;;;;;;4770932;30;20094;-54
2022/04/30 00:19:39;;;;;;;15.82;9.60;;;;;;;;;;4786839;30;20513;-54
2022/04/30 00:22:05;;;;;;;15.93;9.13;;;5.60;99.90;;;;;;4787062;30;20122;-52
2022/04/30 00:24:33;;;;;;;20.63;9.90;;;5.50;99.90;;;;;;4787029;30;20126;-55
2022/04/30 00:27:00;;;;;;;19.02;10.05;;;6.20;99.90;;;;;;4786820;30;20058;-52
2022/04/30 00:29:29;;;;;;;15.18;10.00;;;5.30;99.90;;;;;;4786651;30;20130;-54
2022/04/30 00:31:55;;;;;;;16.08;10.45;;;5.40;99.90;;;;;;4786470;29;20128;-54
2022/04/30 00:34:21;;;;;;;18.02;10.35;;;5.50;99.90;;;;;;4786994;30;20134;-54
2022/04/30 00:36:47;;;;;;;77.38;55.17;;;5.40;99.90;;;;;;4786749;30;20131;-54
2022/04/30 00:39:13;;;;;;;39.83;28.70;;;;;;;;;;4786543;30;20540;-55
2022/04/30 00:41:46;;;;;;;31.20;19.63;;;5.20;99.90;;;;;;4770402;30;20058;-55
2022/04/30 00:44:18;;;;;;;20.10;12.45;;;5.00;99.90;;;;;;4786510;30;20059;-55
2022/04/30 00:46:44;;;;;;;17.02;11.52;;;5.10;99.90;;;;;;4785564;30;20051;-55
2022/04/30 00:49:11;;;;;;;20.38;12.38;;;;;;;;;;4785474;30;20055;-55
2022/04/30 00:51:39;;;;;;;19.92;11.68;;;4.90;99.90;;;;;;4770264;30;20063;-54
2022/04/30 00:54:06;;;;;;;22.55;12.50;;;4.60;99.90;;;;;;4786444;30;20143;-53
2022/04/30 00:56:43;;;;;;;23.80;11.60;;;5.00;99.90;;;;;;4786593;30;20109;-54
2022/04/30 00:59:11;;;;;;;23.88;12.15;;;5.00;99.90;;;;;;4786583;30;20093;-58
2022/04/30 01:01:37;;;;;;;25.67;12.55;;;5.40;99.90;;;;;;4799233;24;20055;-67
2022/04/30 01:04:07;;;;;;;22.17;13.25;;;;;;;;;;4754618;30;20083;-68
2022/04/30 01:06:52;;;;;;;20.92;12.15;;;5.10;99.90;;;;;;4724720;30;20535;-67
2022/04/30 01:09:22;;;;;;;20.55;13.13;;;4.80;99.90;;;;;;4754232;30;20048;-67
2022/04/30 01:12:10;;;;;;;21.58;12.70;;;4.80;99.90;;;;;;4720410;30;20139;-67
2022/04/30 01:14:40;;;;;;;19.45;12.65;;;5.30;99.90;;;;;;4735166;30;20476;-67
2022/04/30 01:17:10;;;;;;;23.25;13.00;;;5.10;99.90;;;;;;4720894;30;20056;-67
2022/04/30 01:19:38;;;;;;;19.42;12.45;;;4.80;99.90;;;;;;4752845;30;20392;-67
2022/04/30 01:22:25;;;;;;;21.52;13.02;;;4.60;99.90;;;;;;4738145;30;20044;-68
2022/04/30 01:24:56;;;;;;;23.70;12.57;;;4.90;99.90;;;;;;4752390;30;20055;-68
2022/04/30 01:27:26;;;;;;;25.83;12.75;;;4.70;99.90;;;;;;4752573;30;20059;-67
2022/04/30 01:29:53;;;;;;;20.00;12.68;;;4.70;99.90;;;;;;4752425;30;20056;-67
2022/04/30 01:37:56;;;;;;;23.40;13.30;;;4.50;99.90;;;;;;4750754;30;20567;-68
2022/04/30 01:40:22;;;;;;;23.50;13.80;;;;;;;;;;4733850;30;20056;-69
2022/04/30 01:42:48;;;;;;;20.80;13.05;;;4.50;99.90;;;;;;4750987;30;20063;-63
2022/04/30 01:45:15;;;;;;;26.08;13.52;;;4.50;99.90;;;;;;4754002;30;20044;-62
2022/04/30 01:47:44;;;;;;;21.10;13.45;;;4.60;99.90;;;;;;4754304;30;20052;-62
2022/04/30 01:50:10;;;;;;;25.20;14.45;;;4.40;99.90;;;;;;4738050;30;20068;-62
2022/04/30 01:52:36;;;;;;;28.17;13.93;;;4.90;99.90;;;;;;4737941;30;20060;-62
2022/04/30 01:55:03;;;;;;;26.08;14.30;;;4.20;99.90;;;;;;4754126;30;20466;-62
2022/04/30 01:57:29;;;;;;;26.17;14.07;;;4.70;99.90;;;;;;4754313;30;20056;-62
2022/04/30 01:59:56;;;;;;;27.25;15.13;;;4.60;99.90;;;;;;4753982;30;20062;-62
2022/04/30 02:02:26;;;;;;;22.60;13.55;;;4.70;99.90;;;;;;4737780;30;20122;-62
2022/04/30 02:04:54;;;;;;;22.08;12.88;;;4.60;99.90;;;;;;4753753;30;20135;-62
2022/04/30 02:07:20;;;;;;;20.80;13.45;;;4.60;99.90;;;;;;4753893;30;20109;-62
2022/04/30 02:09:51;;;;;;;29.85;13.10;;;4.60;99.90;;;;;;4764830;30;20052;-62
2022/04/30 02:12:17;;;;;;;23.73;13.10;;;4.30;99.90;;;;;;4755738;30;20094;-62
2022/04/30 02:14:47;;;;;;;21.30;13.50;;;4.10;99.90;;;;;;4771225;30;20063;-62
2022/04/30 02:17:13;;;;;;;23.02;13.23;;;;;;;;;;4771245;30;20592;-62
2022/04/30 02:22:26;;;;;;;;;;;4.30;99.90;;;;;;4771688;30;20094;-62
2022/04/30 02:24:52;;;;;;;24.23;13.60;;;;;;;;;;4771532;30;19973;-62
2022/04/30 02:27:18;;;;;;;19.92;13.02;;;;;;;;;;4771201;30;20059;-62
2022/04/30 02:29:44;;;;;;;23.17;14.30;;;;;;;;;;4771704;30;20117;-62
2022/04/30 02:32:10;;;;;;;19.67;12.77;;;;;;;;;;4771223;30;20141;-62
2022/04/30 02:34:36;;;;;;;21.70;13.48;;;;;;;;;;4771104;30;20079;-62
2022/04/30 02:37:03;;;;;;;21.05;13.15;;;3.80;99.90;;;;;;4771018;30;20134;-62
2022/04/30 02:39:30;;;;;;;21.77;12.93;;;4.20;99.90;;;;;;4770977;30;20459;-62
2022/04/30 02:41:56;;;;;;;18.52;10.80;;;4.20;99.90;;;;;;4754851;30;20134;-62
2022/04/30 02:44:25;;;;;;;21.25;12.13;;;;;;;;;;4771089;30;20055;-62
2022/04/30 02:46:52;;;;;;;19.35;12.63;;;;;;;;;;4771182;30;20066;-62
2022/04/30 02:49:19;;;;;;;19.88;11.77;;;;;;;;;;4754795;30;20166;-62
2022/04/30 02:51:44;;;;;;;21.50;12.98;;;4.50;99.90;;;;;;4770814;30;20064;-62
2022/04/30 02:54:10;;;;;;;21.15;11.65;;;;;;;;;;4769431;30;20054;-62
2022/04/30 02:56:36;;;;;;;19.08;9.77;;;;;;;;;;4770658;30;20055;-62
2022/04/30 03:01:46;;;;;;;11.57;8.13;;;4.00;99.90;;;;;;4754511;30;20063;-62
2022/04/30 03:04:12;;;;;;;12.52;8.45;;;2.90;99.90;;;;;;4770329;30;20051;-62
2022/04/30 03:06:38;;;;;;;13.80;7.70;;;;;;;;;;4754475;30;20051;-62
2022/04/30 03:09:04;;;;;;;12.95;8.10;;;3.60;99.90;;;;;;4770925;30;20112;-62
2022/04/30 03:11:31;;;;;;;10.93;7.60;;;;;;;;;;4754574;30;20101;-62
2022/04/30 03:13:57;;;;;;;14.32;7.82;;;;;;;;;;4770600;30;20051;-62
2022/04/30 03:22:10;;;;;;;24.83;12.07;;;3.70;99.90;;;;;;4732425;30;20052;-61
2022/04/30 03:24:36;;;;;;;17.27;10.63;;;3.80;99.90;;;;;;4717622;30;20061;-61
2022/04/30 03:27:03;;;;;;;17.92;11.75;;;;;;;;;;4717994;30;20102;-62
2022/04/30 03:29:29;;;;;;;19.63;12.05;;;3.80;99.90;;;;;;4718042;30;20061;-62
2022/04/30 03:31:56;;;;;;;18.52;11.10;;;;;;;;;;4717865;30;20475;-62
2022/04/30 03:34:28;;;;;;;15.82;11.55;;;3.80;99.90;;;;;;4732082;30;20075;-62
2022/04/30 03:36:53;;;;;;;19.25;11.82;;;3.70;99.90;;;;;;4732480;30;20068;-62
2022/04/30 03:39:19;;;;;;;19.15;12.65;;;3.10;99.90;;;;;;4731990;30;20059;-62
2022/04/30 03:41:45;;;;;;;18.70;11.43;;;;;;;;;;4717548;30;20065;-62
2022/04/30 03:44:11;;;;;;;19.38;10.18;;;;;;;;;;4732220;30;20097;-62
2022/04/30 03:46:37;;;;;;;17.77;10.73;;;;;;;;;;4718038;30;20059;-62
2022/04/30 03:49:04;;;;;;;17.70;10.73;;;3.60;99.90;;;;;;4731960;30;20095;-62
2022/04/30 03:51:29;;;;;;;19.58;11.98;;;3.70;99.90;;;;;;4717610;30;20178;-62
2022/04/30 03:53:58;;;;;;;19.42;11.68;;;3.70;99.90;;;;;;4731817;30;20060;-62
2022/04/30 03:56:24;;;;;;;24.77;11.57;;;4.10;99.90;;;;;;4739535;30;20137;-62
2022/04/30 03:58:50;;;;;;;21.15;12.80;;;3.50;99.90;;;;;;4768178;30;20060;-62
2022/04/30 04:01:21;;;;;;;15.50;11.05;;;3.80;99.90;;;;;;4769358;30;20091;-62
2022/04/30 04:03:50;;;;;;;24.45;10.43;;;;;;;;;;4768454;30;20047;-62
2022/04/30 04:06:16;;;;;;;18.15;11.55;;;;;;;;;;4768647;30;20480;-62
2022/04/30 04:08:43;;;;;;;22.02;12.40;;;3.90;99.90;;;;;;4769615;30;20060;-62
2022/04/30 04:11:13;;;;;;;19.90;11.48;;;4.00;99.90;;;;;;4753165;30;20063;-62
2022/04/30 04:19:15;;;;;;;25.45;13.77;;;3.90;99.90;;;;;;4769102;30;20117;-62
2022/04/30 04:21:41;;;;;;;23.27;13.07;;;;;;;;;;4769239;30;20043;-62
2022/04/30 04:26:51;;;;;;;20.70;11.20;;;4.30;99.90;;;;;;4767845;30;20052;-67
2022/04/30 04:29:17;;;;;;;19.00;13.18;;;3.90;99.90;;;;;;4768930;30;20052;-67
2022/04/30 04:31:46;;;;;;;17.95;12.50;;;4.30;99.90;;;;;;4753121;30;20058;-67
2022/04/30 04:34:12;;;;;;;17.13;12.50;;;4.40;99.90;;;;;;4769286;30;20180;-68
2022/04/30 04:36:37;;;;;;;19.92;13.35;;;4.40;99.90;;;;;;4768831;30;20548;-68
2022/04/30 04:39:11;;;;;;;19.30;11.40;;;4.70;99.90;;;;;;4768817;30;20056;-67
2022/04/30 04:41:37;;;;;;;16.85;12.20;;;4.60;99.90;;;;;;4753181;30;20451;-68
2022/04/30 04:44:03;;;;;;;20.95;12.02;;;4.50;99.90;;;;;;4753084;30;20129;-68
2022/04/30 04:46:29;;;;;;;18.65;12.35;;;;;;;;;;4752800;30;20060;-67
2022/04/30 04:48:55;;;;;;;17.15;12.15;;;4.50;99.90;;;;;;4752683;30;20130;-68
2022/04/30 04:51:21;;;;;;;12.40;9.15;;;4.80;99.90;;;;;;4767832;30;20143;-68
2022/04/30 04:53:47;;;;;;;12.23;9.07;;;5.20;99.90;;;;;;4767682;30;20055;-68
2022/04/30 04:56:13;;;;;;;14.48;9.20;;;5.10;99.90;;;;;;4752957;30;20112;-68
2022/04/30 04:58:40;;;;;;;13.85;8.93;;;4.20;99.90;;;;;;4768963;30;20113;-68
2022/04/30 05:01:06;;;;;;;13.25;9.55;;;5.00;99.90;;;;;;4767345;30;20068;-68
2022/04/30 05:03:32;;;;;;;16.83;10.38;;;5.20;99.90;;;;;;4752826;30;20118;-68
2022/04/30 05:05:58;;;;;;;20.35;10.48;;;;;;;;;;4767449;30;20501;-68
2022/04/30 05:08:25;;;;;;;14.00;10.20;;;;;;;;;;4752565;30;20139;-68
2022/04/30 05:10:51;;;;;;;16.42;9.63;;;5.20;99.90;;;;;;4768521;30;20062;-68
2022/04/30 05:13:17;;;;;;;14.85;9.63;;;;;;;;;;4752770;30;20052;-68
2022/04/30 05:15:43;;;;;;;14.30;9.73;;;6.50;99.90;;;;;;4752753;30;20090;-68
2022/04/30 05:18:09;;;;;;;15.02;9.25;;;;;;;;;;4767496;30;20064;-67
2022/04/30 05:20:35;;;;;;;16.25;9.77;;;;;;;;;;4753018;30;20064;-69
2022/04/30 05:23:01;;;;;;;15.60;9.70;;;;;;;;;;4753405;30;20043;-68
2022/04/30 05:25:27;;;;;;;16.08;9.45;;;;;;;;;;4753042;30;20052;-69
2022/04/30 05:27:53;;;;;;;15.13;9.68;;;8.70;99.90;;;;;;4768712;30;20056;-68
2022/04/30 05:30:19;;;;;;;14.82;9.30;;;8.90;99.90;;;;;;4768755;30;20189;-68
2022/04/30 05:32:45;;;;;;;12.40;9.27;;;;;;;;;;4753183;30;20120;-68
2022/04/30 05:35:11;;;;;;;14.43;9.20;;;9.30;99.90;;;;;;4752821;30;20136;-69
2022/04/30 05:37:37;;;;;;;15.57;9.40;;;;;;;;;;4768390;30;20091;-69
2022/04/30 05:40:04;;;;;;;15.75;9.30;;;9.00;99.90;;;;;;4752537;30;20440;-69
2022/04/30 05:42:30;;;;;;;17.05;9.20;;;9.20;99.90;;;;;;4768484;30;20056;-69
2022/04/30 05:44:58;;;;;;;13.30;8.82;;;9.40;99.90;;;;;;4768496;30;20044;-68
2022/04/30 05:47:26;;;;;;;13.48;8.15;;;10.00;99.90;;;;;;4768594;30;20528;-68
2022/04/30 05:49:51;;;;;;;13.30;8.40;;;10.40;99.90;;;;;;4768218;30;20501;-68
2022/04/30 05:52:19;;;;;;;15.00;8.70;;;;;;;;;;4768078;30;20066;-69
2022/04/30 05:54:48;;;;;;;13.05;7.85;;;;;;;;;;4768275;30;20143;-68
2022/04/30 05:57:14;;;;;;;12.90;8.38;;;;;;;;;;4752235;30;20123;-68
2022/04/30 05:59:41;;;;;;;10.68;8.00;;;;;;;;;;4768275;30;20136;-68
2022/04/30 06:02:07;;;;;;;12.73;7.60;;;10.50;99.90;;;;;;4767096;30;20056;-67
2022/04/30 06:04:33;;;;;;;13.05;7.93;;;;;;;;;;4768188;30;20087;-69
2022/04/30 06:06:59;;;;;;;11.18;7.40;;;;;;;;;;4768047;30;20083;-68
2022/04/30 06:09:25;;;;;;;14.13;7.57;;;10.40;99.90;;;;;;4768070;30;20083;-68
2022/04/30 06:11:51;;;;;;;15.68;8.40;;;9.90;99.90;;;;;;4751900;30;20060;-67
2022/04/30 06:14:17;;;;;;;20.90;7.80;;;;;;;;;;4768208;30;20455;-67
2022/04/30 06:16:43;;;;;;;11.93;7.57;;;9.80;99.90;;;;;;4751718;30;20051;-67
2022/04/30 06:19:09;;;;;;;14.73;7.90;;;;;;;;;;4767697;30;20136;-68
2022/04/30 06:21:35;;;;;;;13.13;8.52;;;;;;;;;;4767632;30;20085;-67
2022/04/30 06:24:01;;;;;;;13.10;7.82;;;;;;;;;;4737461;30;20378;-68
2022/04/30 06:26:27;;;;;;;18.20;7.80;;;;;;;;;;4767989;30;20060;-67
2022/04/30 06:28:55;;;;;;;13.52;8.10;;;;;;;;;;4752504;30;20381;-68
2022/04/30 06:31:22;;;;;;;11.95;7.70;;;10.80;99.90;;;;;;4770974;30;20052;-67
2022/04/30 06:33:52;;;;;;;12.95;7.20;;;;;;;;;;4755064;30;20063;-68
2022/04/30 06:36:17;;;;;;;11.82;7.20;;;11.90;99.90;;;;;;4770982;30;20464;-67
2022/04/30 06:38:43;;;;;;;10.15;7.03;;;12.40;99.90;;;;;;4770960;30;20055;-68
2022/04/30 06:41:09;;;;;;;11.93;7.32;;;;;;;;;;4770828;30;20088;-67
2022/04/30 06:43:34;;;;;;;10.77;6.50;;;12.90;99.90;;;;;;4754898;30;20523;-64
2022/04/30 06:46:00;;;;;;;12.25;6.88;;;12.90;99.90;;;;;;4770791;30;20047;-64
2022/04/30 06:48:26;;;;;;;10.40;6.90;;;13.30;99.90;;;;;;4770891;30;20060;-64
2022/04/30 06:50:52;;;;;;;10.10;6.65;;;;;;;;;;4770614;30;20083;-64
2022/04/30 06:58:53;;;;;;;12.63;6.75;;;12.90;99.90;;;;;;4770862;30;20466;-64
2022/04/30 07:01:43;;;;;;;12.23;6.15;;;;;;;;;;4770253;30;20063;-64
2022/04/30 07:04:10;;;;;;;11.40;5.95;;;13.50;99.90;;;;;;4754360;30;20122;-64
2022/04/30 07:06:37;;;;;;;10.88;5.97;;;13.50;99.90;;;;;;4770344;30;20404;-64
2022/04/30 07:09:06;;;;;;;9.55;5.60;;;13.80;99.90;;;;;;4770270;30;20451;-64
2022/04/30 07:11:32;;;;;;;11.20;6.15;;;14.00;99.90;;;;;;4770456;30;20062;-64
2022/04/30 07:13:58;;;;;;;14.30;5.38;;;14.50;99.90;;;;;;4770627;30;20087;-64
2022/04/30 07:16:24;;;;;;;10.82;5.90;;;14.50;99.90;;;;;;4770442;30;20188;-65
2022/04/30 07:18:50;;;;;;;10.48;5.57;;;;;;;;;;4774190;29;20048;-65
2022/04/30 07:21:16;;;;;;;11.88;5.85;;;14.80;99.90;;;;;;4755923;30;20079;-65
2022/04/30 07:23:42;;;;;;;11.10;5.60;;;14.70;99.90;;;;;;4769178;30;20098;-64
2022/04/30 07:26:08;;;;;;;11.52;5.75;;;14.50;99.90;;;;;;4769028;30;20143;-64
2022/04/30 07:28:35;;;;;;;8.10;5.88;;;14.60;99.90;;;;;;4768963;30;20086;-64
2022/04/30 07:31:05;;;;;;;10.70;5.55;;;14.10;99.90;;;;;;4769022;30;20060;-64
2022/04/30 07:33:31;;;;;;;9.18;5.50;;;13.70;99.90;;;;;;4769354;30;20058;-64
2022/04/30 07:35:58;;;;;;;8.43;5.32;;;13.20;99.90;;;;;;4738071;30;20056;-64
2022/04/30 07:38:24;;;;;;;7.72;4.90;;;12.70;99.90;;;;;;4769386;30;20410;-64
2022/04/30 07:40:51;;;;;;;10.35;5.72;;;12.90;99.90;;;;;;4767775;30;20047;-64
2022/04/30 07:43:17;;;;;;;10.77;5.15;;;12.30;99.90;;;;;;4769229;30;20056;-64
2022/04/30 07:45:43;;;;;;;12.35;5.45;;;12.40;99.90;;;;;;4754695;30;20463;-64
2022/04/30 07:48:09;;;;;;;11.82;5.40;;;;;;;;;;4751492;30;20052;-64
2022/04/30 07:50:37;;;;;;;12.05;5.35;;;12.80;99.90;;;;;;4751334;30;20052;-63
2022/04/30 07:53:07;;;;;;;8.75;5.00;;;12.90;99.90;;;;;;4734940;30;20063;-64
2022/04/30 07:55:33;;;;;;;9.30;4.95;;;12.90;99.90;;;;;;4734859;30;20054;-67
2022/04/30 07:58:02;;;;;;;9.35;4.95;;;13.20;99.90;;;;;;4750692;30;20390;-67
2022/04/30 08:00:28;;;;;;;10.30;4.38;;;13.70;99.90;;;;;;4751140;30;20048;-67
2022/04/30 08:02:58;;;;;;;7.50;4.38;;;13.70;99.90;;;;;;4751820;30;20048;-67
2022/04/30 08:05:24;;;;;;;9.88;4.90;;;13.80;99.90;;;;;;4752734;30;20497;-67
2022/04/30 08:07:50;;;;;;;9.10;4.68;;;14.40;99.90;;;;;;4752119;30;20055;-67
2022/04/30 08:10:16;;;;;;;9.15;4.22;;;;;;;;;;4752750;30;20128;-67
2022/04/30 08:12:43;;;;;;;8.82;4.53;;;14.40;99.90;;;;;;4752564;30;20566;-67
2022/04/30 08:15:09;;;;;;;8.85;4.45;;;14.50;99.90;;;;;;4768888;30;20063;-67
2022/04/30 08:17:35;;;;;;;11.05;4.50;;;14.20;99.90;;;;;;4768469;30;20054;-67
2022/04/30 08:20:02;;;;;;;10.10;4.38;;;13.90;99.90;;;;;;4752047;30;20052;-67
2022/04/30 08:22:28;;;;;;;14.57;4.70;;;;;;;;;;4768467;30;20522;-67
2022/04/30 08:24:54;;;;;;;8.13;4.55;;;;;;;;;;4751907;30;20048;-66
2022/04/30 08:27:21;;;;;;;8.13;4.78;;;13.80;99.90;;;;;;4768250;30;20503;-67
2022/04/30 08:29:47;;;;;;;11.07;5.10;;;;;;;;;;4768549;30;20055;-67
2022/04/30 08:32:15;;;;;;;8.68;5.30;;;;;;;;;;4752189;30;20389;-67
2022/04/30 08:34:41;;;;;;;8.75;4.80;;;13.40;99.90;;;;;;4768254;30;20051;-67
2022/04/30 08:37:06;;;;;;;9.18;5.03;;;13.10;99.90;;;;;;4767735;30;20186;-66
2022/04/30 08:39:33;;;;;;;9.82;5.35;;;;;;;;;;4768182;30;20126;-67
2022/04/30 08:41:58;;;;;;;11.80;5.00;;;12.70;99.90;;;;;;4767819;30;20060;-67
2022/04/30 08:44:25;;;;;;;9.73;4.80;;;12.30;99.90;;;;;;4768284;30;20059;-67
2022/04/30 08:46:51;;;;;;;12.05;4.88;;;12.60;99.90;;;;;;4751668;30;20127;-67
2022/04/30 08:49:18;;;;;;;11.60;4.82;;;13.30;99.90;;;;;;4752209;30;20222;-67
2022/04/30 08:51:45;;;;;;;10.88;5.22;;;;;;;;;;4753529;30;20126;-67
2022/04/30 08:54:10;;;;;;;8.77;4.80;;;12.70;99.90;;;;;;4751879;30;20059;-67
2022/04/30 08:56:36;;;;;;;12.68;5.35;;;12.50;99.90;;;;;;4751926;30;20094;-67
2022/04/30 08:59:07;;;;;;;15.40;5.15;;;12.50;99.90;;;;;;4767526;30;20059;-63
2022/04/30 09:01:55;;;;;;;8.30;5.00;;;12.40;99.90;;;;;;4767906;30;20055;-63
2022/04/30 09:04:21;;;;;;;7.55;5.00;;;12.80;99.90;;;;;;4767482;30;20052;-63
2022/04/30 09:06:55;;;;;;;9.32;4.93;;;12.60;99.90;;;;;;4768615;30;20055;-63
2022/04/30 09:09:26;;;;;;;11.73;5.15;;;12.60;99.90;;;;;;4768037;30;20051;-63
2022/04/30 09:12:05;;;;;;;9.80;4.93;;;12.60;99.90;;;;;;4767532;30;20047;-63
2022/04/30 09:14:31;;;;;;;8.52;5.20;;;12.80;99.90;;;;;;4767975;30;20404;-63
2022/04/30 09:17:08;;;;;;;12.63;5.15;;;11.90;99.90;;;;;;4768005;30;20052;-63
2022/04/30 09:19:45;;;;;;;9.02;4.60;;;12.40;99.90;;;;;;4752158;30;20477;-63
2022/04/30 09:22:11;;;;;;;10.97;5.50;;;13.20;99.90;;;;;;4767472;30;20069;-63
2022/04/30 09:24:48;;;;;;;12.02;4.88;;;12.60;99.90;;;;;;4767922;30;20759;-63
2022/04/30 09:27:17;;;;;;;7.20;4.47;;;12.70;99.90;;;;;;4768130;30;20075;-63
2022/04/30 09:29:44;;;;;;;10.23;4.47;;;14.70;99.90;;;;;;4767659;30;20052;-63
2022/04/30 09:32:24;;;;;;;8.90;4.22;;;12.90;99.90;;;;;;4767413;30;20059;-63
2022/04/30 09:37:49;;;;;;;10.63;4.43;;;13.30;99.90;;;;;;4767510;30;20408;-63
2022/04/30 09:40:15;;;;;;;8.98;4.22;;;;;;;;;;4767498;30;20080;-63
2022/04/30 09:42:42;;;;;;;6.47;4.07;;;14.10;99.90;;;;;;4767321;30;20069;-63
2022/04/30 09:45:09;;;;;;;8.20;4.47;;;13.90;99.90;;;;;;4767708;30;20059;-63
2022/04/30 09:47:35;;;;;;;6.22;4.15;;;14.30;99.90;;;;;;4752016;30;20447;-63
2022/04/30 09:55:53;;;;;;;10.25;4.07;;;14.80;96.60;;;;;;4711751;30;20053;-63
2022/04/30 09:58:28;;;;;;;8.70;4.07;;;15.10;99.90;;;;;;4712054;30;20061;-63
2022/04/30 10:00:56;;;;;;;8.02;4.00;;;14.90;95.30;;;;;;4711935;30;20057;-63
2022/04/30 10:03:29;;;;;;;8.50;4.30;;;14.80;99.90;;;;;;4716802;30;20114;-63
2022/04/30 10:06:06;;;;;;;8.00;3.70;;;14.90;93.60;;;;;;4732764;30;20064;-63
2022/04/30 10:08:39;;;;;;;7.57;4.07;;;14.80;91.90;;;;;;4718273;30;20464;-63
2022/04/30 10:11:18;;;;;;;9.07;4.05;;;14.50;91.70;;;;;;4718246;30;20402;-63
2022/04/30 10:14:01;;;;;;;8.23;3.97;;;14.30;93.80;;;;;;4733271;30;20460;-63
2022/04/30 10:16:28;;;;;;;8.40;4.00;;;14.10;99.90;;;;;;4733011;30;20057;-63
2022/04/30 10:19:15;;;;;;;10.40;3.95;;;14.50;93.50;;;;;;4732404;30;20072;-66
2022/04/30 10:21:41;;;;;;;8.75;4.30;;;;;;;;;;4732473;30;20086;-66
2022/04/30 10:24:12;;;;;;;7.70;4.18;;;15.00;99.90;;;;;;4718012;30;20057;-67
2022/04/30 10:26:38;;;;;;;5.88;3.85;;;15.00;96.70;;;;;;4732585;30;20094;-66
2022/04/30 10:29:11;;;;;;;7.25;3.95;;;15.20;99.90;;;;;;4712805;30;20064;-66
2022/04/30 10:31:44;;;;;;;9.40;3.97;;;14.90;92.50;;;;;;4770238;30;20079;-67
2022/04/30 10:34:11;;;;;;;4.88;3.58;;;15.10;98.90;;;;;;4754022;30;20063;-67
2022/04/30 10:36:38;;;;;;;7.78;4.15;;;15.10;93.60;;;;;;4770369;30;20079;-66
2022/04/30 10:39:09;;;;;;;7.43;4.18;;;15.00;90.10;;;;;;4769624;30;20059;-66
2022/04/30 10:41:52;;;;;;;5.78;3.90;;;14.80;97.00;;;;;;4770160;30;20466;-65
2022/04/30 10:44:39;;;;;;;6.15;3.75;;;14.70;97.80;;;;;;4769820;30;20549;-65
2022/04/30 10:47:14;;;;;;;8.10;3.85;;;14.90;90.10;;;;;;4753809;30;20056;-65
2022/04/30 10:49:40;;;;;;;;;;;14.90;89.50;;;;;;4755348;30;20230;-66
2022/04/30 10:52:08;;;;;;;7.03;3.60;;;14.40;98.40;;;;;;4769731;30;19996;-66
2022/04/30 10:54:34;;;;;;;5.60;3.70;;;14.20;97.70;;;;;;4770165;30;20062;-67
2022/04/30 10:57:02;;;;;;;6.40;3.70;;;14.50;96.80;;;;;;4769446;30;20055;-66
2022/04/30 10:59:28;;;;;;;6.75;3.70;;;;;;;;;;4768567;30;20391;-66
2022/04/30 11:01:54;;;;;;;8.48;3.70;;;14.70;96.30;;;;;;4767963;30;20072;-66
2022/04/30 11:04:21;;;;;;;5.72;3.22;;;15.10;94.50;;;;;;4781791;30;20051;-66
2022/04/30 11:06:50;;;;;;;6.10;3.30;;;14.60;91.70;;;;;;4787391;30;20087;-67
2022/04/30 11:09:17;;;;;;;8.05;3.30;;;;;;;;;;4787325;30;20073;-66
2022/04/30 11:11:47;;;;;;;7.35;3.50;;;15.40;92.50;;;;;;4787974;30;20142;-66
2022/04/30 11:14:13;;;;;;;6.40;3.65;;;15.10;91.30;;;;;;4787601;30;20130;-66
2022/04/30 11:16:42;;;;;;;5.63;3.75;;;15.00;79.40;;;;;;4787048;30;20508;-66
2022/04/30 11:19:10;;;;;;;7.47;3.72;;;15.00;80.70;;;;;;4770756;30;20062;-66
2022/04/30 11:21:57;;;;;;;7.07;3.72;;;15.30;91.50;;;;;;4787648;30;20048;-66
2022/04/30 11:24:31;;;;;;;5.75;3.50;;;15.20;81.20;;;;;;4783934;30;20138;-66
2022/04/30 11:26:59;;;;;;;8.82;3.40;;;15.20;80.50;;;;;;4768940;30;20051;-66
2022/04/30 11:29:26;;;;;;;7.30;3.97;;;15.70;80.50;;;;;;4753604;30;20152;-66
2022/04/30 11:31:53;;;;;;;7.68;3.90;;;15.40;92.30;;;;;;4769449;30;20059;-67
2022/04/30 11:34:19;;;;;;;8.75;3.70;;;15.60;88.20;;;;;;4769795;30;20063;-66
2022/04/30 11:36:47;;;;;;;6.85;3.75;;;15.60;85.80;;;;;;4753665;30;20083;-66
2022/04/30 11:39:14;;;;;;;6.35;3.42;;;15.60;87.10;;;;;;4769099;30;20443;-67
2022/04/30 11:41:46;;;;;;;7.97;3.35;;;15.60;71.70;;;;;;4769507;30;20060;-66
2022/04/30 11:44:22;;;;;;;5.30;3.05;;;15.80;71.30;;;;;;4769958;30;20052;-66
2022/04/30 11:46:53;;;;;;;7.03;3.40;;;16.20;82.40;;;;;;4769470;30;20051;-67
2022/04/30 11:49:21;;;;;;;15.40;4.40;;;15.90;71.40;;;;;;4769579;30;20098;-67
2022/04/30 11:51:48;;;;;;;9.43;3.60;;;15.90;89.90;;;;;;4770144;30;20070;-67
2022/04/30 11:54:17;;;;;;;8.70;4.10;;;15.80;72.10;;;;;;4769530;30;20509;-67
2022/04/30 11:56:44;;;;;;;6.70;4.03;;;15.40;80.60;;;;;;4769809;30;20060;-66
2022/04/30 11:59:11;;;;;;;5.72;3.40;;;15.40;72.90;;;;;;4769230;30;20051;-67
2022/04/30 12:01:42;;;;;;;7.53;3.88;;;15.20;91.10;;;;;;4769316;30;20055;-67
2022/04/30 12:04:14;;;;;;;11.95;3.70;;;15.10;90.90;;;;;;4769584;30;20130;-67
2022/04/30 12:06:43;;;;;;;11.50;4.03;;;15.10;74.30;;;;;;4769882;30;20458;-66
2022/04/30 12:09:18;;;;;;;5.03;3.38;;;15.00;89.50;;;;;;4768862;30;20143;-66
2022/04/30 12:11:45;;;;;;;6.45;4.05;;;14.80;74.30;;;;;;4769173;30;20515;-66
2022/04/30 12:14:11;;;;;;;8.77;4.03;;;;;;;;;;4767794;30;20090;-66
2022/04/30 12:16:42;;;;;;;9.77;3.97;;;14.70;76.20;;;;;;4753455;30;20404;-67
2022/04/30 12:25:11;;;;;;;8.02;4.20;;;14.50;88.00;;;;;;4767941;30;20063;-67
2022/04/30 12:27:37;;;;;;;6.95;4.25;;;14.70;92.00;;;;;;4767369;30;20122;-66
2022/04/30 12:30:05;;;;;;;6.60;4.15;;;14.20;86.90;;;;;;4769010;30;20078;-66
2022/04/30 12:32:35;;;;;;;6.72;4.32;;;14.00;88.70;;;;;;4768948;30;20456;-66
2022/04/30 12:35:01;;;;;;;11.25;4.28;;;13.40;97.90;;;;;;4769213;30;20051;-66
2022/04/30 12:37:34;;;;;;;6.80;4.22;;;13.50;98.10;;;;;;4769131;30;20055;-66
2022/04/30 12:40:03;;;;;;;8.88;4.30;;;14.10;99.40;;;;;;4752921;30;20055;-66
2022/04/30 12:42:29;;;;;;;8.65;4.40;;;;;;;;;;4752699;30;20055;-65
2022/04/30 12:44:55;;;;;;;7.80;4.70;;;13.80;97.20;;;;;;4752956;30;20062;-65
2022/04/30 12:47:21;;;;;;;6.80;4.53;;;13.50;99.90;;;;;;4768617;30;20131;-66
2022/04/30 12:49:46;;;;;;;7.35;4.47;;;13.20;99.90;;;;;;4768595;30;20055;-66
2022/04/30 12:52:12;;;;;;;7.03;4.60;;;;;;;;;;4768787;30;20121;-66
2022/04/30 12:54:39;;;;;;;8.95;4.40;;;;;;;;;;4768805;30;20580;-66
2022/04/30 12:57:07;;;;;;;9.50;4.28;;;13.60;99.90;;;;;;4752502;30;20066;-66
2022/04/30 12:59:33;;;;;;;7.05;4.35;;;13.00;95.40;;;;;;4768164;30;20058;-66
2022/04/30 13:02:00;;;;;;;6.75;4.22;;;;;;;;;;4768062;30;20068;-66
2022/04/30 13:04:25;;;;;;;6.70;4.22;;;12.90;99.90;;;;;;4752667;30;20067;-66
2022/04/30 13:06:51;;;;;;;8.30;4.25;;;;;;;;;;4752292;30;20055;-65
2022/04/30 13:15:03;;;;;;;8.68;4.40;;;12.80;97.00;;;;;;4713101;30;20144;-65
2022/04/30 13:17:29;;;;;;;7.25;4.20;;;;;;;;;;4713123;30;20083;-65
2022/04/30 13:19:56;;;;;;;7.43;4.20;;;12.80;99.90;;;;;;4713391;30;20123;-65
2022/04/30 13:22:22;;;;;;;9.02;4.70;;;;;;;;;;4712961;30;20059;-66
2022/04/30 13:24:48;;;;;;;7.00;4.40;;;;;;;;;;4712986;30;20190;-66
2022/04/30 13:27:14;;;;;;;6.82;4.40;;;;;;;;;;4713036;30;20174;-65
2022/04/30 13:29:41;;;;;;;10.65;4.43;;;12.60;96.30;;;;;;4713305;30;20056;-65
2022/04/30 13:32:07;;;;;;;8.60;4.40;;;12.60;99.90;;;;;;4713078;30;20499;-65
2022/04/30 13:34:33;;;;;;;7.50;4.53;;;12.60;99.90;;;;;;4712944;30;20064;-65
2022/04/30 13:36:59;;;;;;;9.15;4.25;;;;;;;;;;4712955;30;20679;-65
2022/04/30 13:39:25;;;;;;;7.88;4.40;;;12.40;99.90;;;;;;4716201;30;20060;-65
2022/04/30 13:41:51;;;;;;;8.73;4.78;;;;;;;;;;4716489;30;20528;-66
2022/04/30 13:44:16;;;;;;;7.32;4.28;;;12.40;99.90;;;;;;4716496;30;20049;-66
2022/04/30 13:46:43;;;;;;;7.15;4.40;;;12.50;97.70;;;;;;4716348;30;20053;-66
2022/04/30 13:49:10;;;;;;;8.13;4.45;;;12.60;99.90;;;;;;4746772;30;20532;-65
2022/04/30 13:51:38;;;;;;;7.40;4.00;;;12.60;99.90;;;;;;4771336;30;20051;-66
2022/04/30 13:54:04;;;;;;;6.43;4.10;;;;;;;;;;4755633;30;20063;-66
2022/04/30 13:56:36;;;;;;;8.82;4.32;;;12.50;99.90;;;;;;4755695;30;20063;-65
2022/04/30 13:59:04;;;;;;;7.43;4.30;;;12.10;99.90;;;;;;4756234;30;20513;-66
2022/04/30 14:01:30;;;;;;;8.02;4.07;;;12.40;99.90;;;;;;4771296;30;20066;-66